Time;durP1;ratioP1;P1;durP2;ratioP2;P2;SDS_P1;SDS_P2;PMS_P1;PMS_P2;Temp;Humidity;BMP_temperature;BMP_pressure;BME280_temperature;BME280_humidity;BME280_pressure;Samples;Min_cycle;Max_cycle;Signal;HPM_P1;HPM_P2
2023/12/31 00:01:43;;;;;;;4.60;3.90;;;;;9.70;97883.00;;;;5035311;28;20072;-65
2023/12/31 00:04:10;;;;;;;3.97;3.55;;;;;9.80;97876.00;;;;5034821;28;20048;-65
2023/12/31 00:06:36;;;;;;;7.95;3.88;;;;;9.70;97868.00;;;;5035170;28;20410;-65
2023/12/31 00:09:03;;;;;;;5.43;3.70;;;;;9.70;97865.00;;;;5035232;28;20049;-65
2023/12/31 00:11:30;;;;;;;7.65;3.40;;;;;9.70;97853.00;;;;5034030;28;20486;-64
2023/12/31 00:13:56;;;;;;;4.30;3.42;;;;;9.70;97847.00;;;;5033512;28;20052;-65
2023/12/31 00:16:23;;;;;;;4.90;3.47;;;;;9.80;97851.00;;;;5035222;28;20038;-64
2023/12/31 00:18:49;;;;;;;4.40;3.10;;;;;9.70;97849.00;;;;5033999;28;20048;-65
2023/12/31 00:21:16;;;;;;;4.82;3.63;;;;;9.70;97844.00;;;;5033777;28;20057;-64
2023/12/31 00:23:43;;;;;;;5.32;3.30;;;;;9.60;97818.00;;;;5034630;28;20478;-65
2023/12/31 00:26:10;;;;;;;4.43;3.08;;;;;9.50;97804.00;;;;5034848;28;20520;-65
2023/12/31 00:28:38;;;;;;;4.78;3.40;;;;;9.40;97799.00;;;;5034858;28;20049;-65
2023/12/31 00:31:05;;;;;;;3.75;2.67;;;;;9.40;97798.00;;;;5033642;28;20490;-63
2023/12/31 00:33:32;;;;;;;5.05;2.92;;;;;9.40;97794.00;;;;5034115;28;20091;-65
2023/12/31 00:36:00;;;;;;;4.75;3.03;;;;;9.50;97791.00;;;;5017024;28;20100;-63
2023/12/31 00:38:27;;;;;;;5.32;2.67;;;;;9.40;97788.00;;;;5016654;28;20049;-61
2023/12/31 00:40:54;;;;;;;5.60;2.47;;;;;9.40;97794.00;;;;5034685;28;20120;-62
2023/12/31 00:43:20;;;;;;;3.35;2.45;;;;;9.40;97779.00;;;;5032947;28;20572;-62
2023/12/31 00:45:47;;;;;;;5.47;2.83;;;;;9.40;97785.00;;;;5032787;28;20052;-64
2023/12/31 00:48:14;;;;;;;5.63;2.75;;;;;9.40;97784.00;;;;5033111;28;20061;-64
2023/12/31 00:50:40;;;;;;;3.67;2.90;;;;;9.50;97772.00;;;;5034353;28;20111;-64
2023/12/31 00:53:08;;;;;;;3.47;2.25;;;;;9.50;97771.00;;;;5034528;28;20042;-64
2023/12/31 00:55:38;;;;;;;3.15;1.88;;;;;9.40;97761.00;;;;5033869;28;20056;-64
2023/12/31 00:58:07;;;;;;;3.17;2.15;;;;;9.40;97761.00;;;;5033282;28;20099;-64
2023/12/31 01:00:34;;;;;;;2.40;1.70;;;;;9.40;97761.00;;;;5033199;28;20107;-66
2023/12/31 01:03:00;;;;;;;4.15;2.42;;;;;9.50;97747.00;;;;5033151;28;20045;-64
2023/12/31 01:05:27;;;;;;;3.30;1.70;;;;;9.50;97745.00;;;;5033670;28;20096;-65
2023/12/31 01:07:54;;;;;;;6.55;2.50;;;;;9.40;97732.00;;;;5033002;28;20089;-63
2023/12/31 01:10:21;;;;;;;2.38;1.63;;;;;9.40;97712.00;;;;5032880;28;20152;-65
2023/12/31 01:12:47;;;;;;;2.00;1.67;;;;;9.30;97715.00;;;;5033978;28;20443;-65
2023/12/31 01:15:14;;;;;;;1.65;1.50;;;;;9.30;97707.00;;;;5033332;28;20048;-66
2023/12/31 01:17:41;;;;;;;1.63;1.20;;;;;9.20;97699.00;;;;5033794;28;20120;-65
2023/12/31 01:20:08;;;;;;;1.40;1.30;;;;;9.30;97690.00;;;;5033808;28;20064;-65
2023/12/31 01:22:35;;;;;;;2.13;1.52;;;;;9.20;97689.00;;;;5033743;28;20406;-65
2023/12/31 01:25:03;;;;;;;1.98;1.50;;;;;9.30;97688.00;;;;5032234;28;20045;-64
2023/12/31 01:27:30;;;;;;;3.47;1.52;;;;;9.20;97682.00;;;;5032600;28;20053;-65
2023/12/31 01:29:56;;;;;;;2.40;1.40;;;;;9.20;97675.00;;;;5032467;28;20077;-65
2023/12/31 01:32:23;;;;;;;2.47;1.70;;;;;9.10;97672.00;;;;5016146;28;20045;-64
2023/12/31 01:34:51;;;;;;;2.20;1.90;;;;;8.90;97666.00;;;;5031913;28;20041;-64
2023/12/31 01:37:18;;;;;;;2.88;2.10;;;;;8.70;97661.00;;;;5032530;28;20391;-65
2023/12/31 01:39:45;;;;;;;3.45;1.85;;;;;8.40;97657.00;;;;5032480;28;20099;-64
2023/12/31 01:42:12;;;;;;;3.03;2.10;;;;;8.20;97649.00;;;;5032403;28;20037;-64
2023/12/31 01:44:39;;;;;;;1.83;1.73;;;;;8.10;97646.00;;;;5015205;28;20491;-61
2023/12/31 01:47:06;;;;;;;3.00;1.70;;;;;8.20;97658.00;;;;5032248;28;20107;-62
2023/12/31 01:49:32;;;;;;;2.42;1.88;;;;;8.20;97658.00;;;;5031480;28;20045;-64
2023/12/31 01:52:00;;;;;;;2.55;1.77;;;;;8.20;97670.00;;;;5033136;28;20050;-64
2023/12/31 01:54:28;;;;;;;3.05;1.92;;;;;8.30;97676.00;;;;5031394;28;20057;-63
2023/12/31 01:56:56;;;;;;;5.22;2.10;;;;;8.30;97682.00;;;;5031930;28;20495;-64
2023/12/31 01:59:22;;;;;;;3.97;1.80;;;;;8.30;97674.00;;;;5031829;28;20049;-64
2023/12/31 02:01:50;;;;;;;2.10;1.80;;;;;8.30;97674.00;;;;5031966;28;20041;-64
2023/12/31 02:04:22;;;;;;;5.05;2.10;;;;;8.30;97657.00;;;;5031073;28;20140;-64
2023/12/31 02:06:49;;;;;;;4.63;2.00;;;;;8.30;97652.00;;;;5031669;28;20140;-64
2023/12/31 02:09:17;;;;;;;2.03;1.63;;;;;8.10;97643.00;;;;5031904;28;20457;-64
2023/12/31 02:11:43;;;;;;;2.67;1.63;;;;;7.90;97632.00;;;;5033232;28;20099;-64
2023/12/31 02:14:13;;;;;;;2.90;1.60;;;;;7.90;97638.00;;;;5015402;28;20052;-64
2023/12/31 02:16:39;;;;;;;3.78;2.30;;;;;8.10;97630.00;;;;5033295;28;20044;-64
2023/12/31 02:19:06;;;;;;;2.50;1.75;;;;;8.20;97638.00;;;;5032781;28;20124;-64
2023/12/31 02:21:33;;;;;;;2.85;2.20;;;;;8.30;97628.00;;;;5033127;28;20055;-63
2023/12/31 02:24:00;;;;;;;4.15;2.67;;;;;8.40;97635.00;;;;5030791;28;20049;-64
2023/12/31 02:26:28;;;;;;;3.88;1.90;;;;;8.30;97631.00;;;;5031335;28;20053;-63
2023/12/31 02:28:55;;;;;;;4.20;2.13;;;;;8.20;97618.00;;;;5032851;28;20048;-62
2023/12/31 02:31:21;;;;;;;4.50;2.28;;;;;8.00;97606.00;;;;5033048;28;20033;-64
2023/12/31 02:33:48;;;;;;;4.07;2.20;;;;;7.90;97605.00;;;;5014506;28;20092;-64
2023/12/31 02:36:14;;;;;;;4.00;1.52;;;;;7.80;97599.00;;;;5032722;28;20227;-64
2023/12/31 02:38:41;;;;;;;4.13;2.17;;;;;7.90;97598.00;;;;5031228;28;20049;-64
2023/12/31 02:41:08;;;;;;;3.22;2.28;;;;;7.90;97589.00;;;;5032579;28;20045;-65
2023/12/31 02:43:34;;;;;;;3.92;1.95;;;;;7.90;97580.00;;;;5030648;28;20068;-64
2023/12/31 02:46:01;;;;;;;4.00;1.95;;;;;7.90;97583.00;;;;5031076;28;20045;-65
2023/12/31 02:48:28;;;;;;;2.65;2.13;;;;;7.90;97571.00;;;;5032307;28;20056;-64
2023/12/31 02:50:55;;;;;;;3.40;2.10;;;;;7.90;97567.00;;;;5032446;28;20045;-64
2023/12/31 02:53:22;;;;;;;2.42;2.13;;;;;8.00;97557.00;;;;5031991;28;20498;-64
2023/12/31 02:55:48;;;;;;;4.07;2.50;;;;;8.10;97555.00;;;;5030671;28;20119;-61
2023/12/31 02:58:15;;;;;;;4.32;2.00;;;;;8.20;97546.00;;;;5032184;28;20136;-62
2023/12/31 03:00:42;;;;;;;3.05;2.13;;;;;8.40;97549.00;;;;5030980;28;20049;-63
2023/12/31 03:03:08;;;;;;;4.80;2.55;;;;;8.50;97535.00;;;;5032551;28;20037;-63
2023/12/31 03:05:35;;;;;;;5.53;2.30;;;;;8.60;97544.00;;;;5014254;28;20056;-62
2023/12/31 03:08:02;;;;;;;3.08;2.22;;;;;8.70;97544.00;;;;5031232;28;20052;-61
2023/12/31 03:10:30;;;;;;;3.72;2.28;;;;;8.70;97539.00;;;;5032196;28;20041;-61
2023/12/31 03:12:56;;;;;;;2.05;1.90;;;;;8.80;97534.00;;;;5030725;28;20481;-62
2023/12/31 03:15:23;;;;;;;4.82;2.40;;;;;8.90;97540.00;;;;5031553;28;20042;-61
2023/12/31 03:17:50;;;;;;;3.85;2.22;;;;;8.90;97537.00;;;;5032103;28;20056;-62
2023/12/31 03:20:17;;;;;;;2.92;2.20;;;;;8.90;97535.00;;;;5032026;28;20529;-61
2023/12/31 03:22:47;;;;;;;5.22;2.97;;;;;9.00;97531.00;;;;5031092;28;20433;-62
2023/12/31 03:25:15;;;;;;;3.47;2.45;;;;;9.00;97530.00;;;;5031684;28;20037;-65
2023/12/31 03:27:45;;;;;;;5.90;2.83;;;;;9.00;97529.00;;;;5031975;28;20046;-65
2023/12/31 03:30:12;;;;;;;3.70;2.90;;;;;9.10;97521.00;;;;5014679;28;20119;-66
2023/12/31 03:32:39;;;;;;;4.50;2.17;;;;;9.10;97521.00;;;;5014207;28;20041;-66
2023/12/31 03:35:08;;;;;;;2.70;2.25;;;;;9.10;97511.00;;;;5030189;28;20107;-65
2023/12/31 03:37:34;;;;;;;3.70;2.60;;;;;9.00;97501.00;;;;5030661;28;20049;-65
2023/12/31 03:40:01;;;;;;;4.07;2.40;;;;;8.80;97503.00;;;;5031882;28;20392;-65
2023/12/31 03:42:28;;;;;;;6.13;2.60;;;;;8.70;97493.00;;;;5030659;28;20490;-66
2023/12/31 03:44:54;;;;;;;2.92;2.17;;;;;8.80;97498.00;;;;5031457;28;20049;-65
2023/12/31 03:47:21;;;;;;;2.97;2.50;;;;;8.90;97493.00;;;;5030598;28;20051;-65
2023/12/31 03:49:47;;;;;;;6.57;2.88;;;;;8.90;97483.00;;;;5030483;28;20057;-64
2023/12/31 03:52:15;;;;;;;4.00;2.78;;;;;8.90;97490.00;;;;5030474;28;20513;-64
2023/12/31 03:54:42;;;;;;;3.58;2.55;;;;;9.00;97483.00;;;;5029936;28;20056;-64
2023/12/31 03:57:08;;;;;;;3.45;2.65;;;;;9.00;97486.00;;;;5031833;28;20072;-64
2023/12/31 03:59:35;;;;;;;4.65;2.92;;;;;9.10;97484.00;;;;5031924;28;20091;-64
2023/12/31 04:02:03;;;;;;;4.07;2.42;;;;;9.10;97485.00;;;;5031759;28;20091;-64
2023/12/31 04:04:29;;;;;;;3.78;2.70;;;;;9.20;97481.00;;;;5031119;28;20045;-64
2023/12/31 04:06:56;;;;;;;5.50;2.40;;;;;9.20;97466.00;;;;5031786;28;20513;-64
2023/12/31 04:09:23;;;;;;;2.90;2.60;;;;;9.30;97472.00;;;;5031839;28;20095;-65
2023/12/31 04:11:49;;;;;;;3.65;2.42;;;;;9.30;97464.00;;;;5031684;28;20049;-65
2023/12/31 04:14:16;;;;;;;3.00;2.30;;;;;9.40;97454.00;;;;5032979;28;20113;-63
2023/12/31 04:16:43;;;;;;;2.85;2.33;;;;;9.40;97453.00;;;;5034845;28;20049;-64
2023/12/31 04:19:14;;;;;;;3.42;2.67;;;;;9.50;97447.00;;;;5035017;28;20150;-64
2023/12/31 04:21:41;;;;;;;4.10;2.03;;;;;9.40;97434.00;;;;5035705;28;20042;-63
2023/12/31 04:24:08;;;;;;;4.45;2.30;;;;;9.50;97429.00;;;;5033640;28;20132;-61
2023/12/31 04:26:34;;;;;;;3.05;2.00;;;;;9.60;97422.00;;;;5034350;28;20056;-63
2023/12/31 04:29:01;;;;;;;3.13;2.33;;;;;9.60;97426.00;;;;5017885;28;20081;-62
2023/12/31 04:31:27;;;;;;;3.70;1.95;;;;;9.70;97415.00;;;;5033948;28;20506;-61
2023/12/31 04:33:54;;;;;;;2.75;2.08;;;;;9.70;97395.00;;;;5035430;28;20092;-61
2023/12/31 04:36:21;;;;;;;3.45;2.13;;;;;9.70;97401.00;;;;5035935;28;20063;-64
2023/12/31 04:38:47;;;;;;;3.08;2.15;;;;;9.70;97389.00;;;;5036499;28;20120;-62
2023/12/31 04:41:24;;;;;;;2.45;2.10;;;;;9.80;97384.00;;;;5035882;28;20099;-63
2023/12/31 04:43:50;;;;;;;2.90;1.88;;;;;9.80;97392.00;;;;5033960;28;20038;-62
2023/12/31 04:46:19;;;;;;;2.70;1.98;;;;;9.80;97395.00;;;;5036424;28;20057;-63
2023/12/31 04:48:46;;;;;;;5.85;2.17;;;;;9.80;97389.00;;;;5034028;28;20049;-62
2023/12/31 04:51:31;;;;;;;3.33;2.03;;;;;9.80;97392.00;;;;5037646;28;20048;-62
2023/12/31 04:53:58;;;;;;;4.50;2.00;;;;;9.90;97379.00;;;;5019098;28;20107;-62
2023/12/31 04:56:26;;;;;;;2.80;1.63;;;;;9.90;97376.00;;;;5036857;28;20044;-62
2023/12/31 04:58:56;;;;;;;1.90;1.70;;;;;9.90;97364.00;;;;5037412;28;20466;-62
2023/12/31 05:01:23;;;;;;;2.22;1.80;;;;;10.00;97367.00;;;;5036008;28;20050;-62
2023/12/31 05:03:50;;;;;;;1.98;1.73;;;;;10.00;97365.00;;;;5041010;28;20132;-63
2023/12/31 05:06:17;;;;;;;3.22;1.50;;;;;10.10;97355.00;;;;5042149;28;20517;-62
2023/12/31 05:08:44;;;;;;;1.80;1.70;;;;;10.20;97365.00;;;;5043305;28;20124;-63
2023/12/31 05:11:12;;;;;;;4.15;2.05;;;;;10.20;97360.00;;;;5037044;28;20049;-62
2023/12/31 05:13:40;;;;;;;2.38;1.40;;;;;10.30;97364.00;;;;5034447;28;20080;-62
2023/12/31 05:16:09;;;;;;;1.70;1.60;;;;;10.20;97356.00;;;;5034294;28;20049;-62
2023/12/31 05:18:35;;;;;;;2.15;1.75;;;;;10.20;97359.00;;;;5033519;28;20053;-62
2023/12/31 05:21:02;;;;;;;3.67;1.80;;;;;10.30;97338.00;;;;5034106;28;20430;-65
2023/12/31 05:23:30;;;;;;;1.98;1.67;;;;;10.30;97338.00;;;;5033930;28;20037;-63
2023/12/31 05:25:56;;;;;;;2.42;1.90;;;;;10.30;97342.00;;;;5032876;28;20041;-63
2023/12/31 05:28:23;;;;;;;2.35;1.70;;;;;10.40;97345.00;;;;5034046;28;20041;-63
2023/12/31 05:30:50;;;;;;;2.45;1.85;;;;;10.50;97342.00;;;;5035098;28;20049;-62
2023/12/31 05:33:16;;;;;;;1.73;1.63;;;;;10.50;97350.00;;;;5033527;28;20109;-64
2023/12/31 05:35:43;;;;;;;1.80;1.58;;;;;10.50;97343.00;;;;5033634;28;20116;-62
2023/12/31 05:38:10;;;;;;;3.25;1.70;;;;;10.50;97349.00;;;;5033938;28;20041;-62
2023/12/31 05:40:36;;;;;;;2.10;1.90;;;;;10.50;97343.00;;;;5033821;28;20079;-63
2023/12/31 05:43:03;;;;;;;1.88;1.55;;;;;10.50;97350.00;;;;5033652;28;20380;-63
2023/12/31 05:45:30;;;;;;;2.80;1.83;;;;;10.50;97355.00;;;;5032954;28;20045;-62
2023/12/31 05:47:57;;;;;;;2.35;1.90;;;;;10.60;97351.00;;;;5033413;28;20120;-62
2023/12/31 05:50:23;;;;;;;4.88;3.08;;;;;10.60;97349.00;;;;5033343;28;20041;-63
2023/12/31 05:52:50;;;;;;;2.58;2.20;;;;;10.60;97354.00;;;;5032323;28;20045;-62
2023/12/31 05:55:17;;;;;;;4.28;1.80;;;;;10.60;97354.00;;;;5033016;28;20041;-62
2023/12/31 05:57:43;;;;;;;3.17;2.15;;;;;10.70;97348.00;;;;5033119;28;20073;-65
2023/12/31 06:00:11;;;;;;;3.45;1.90;;;;;10.70;97336.00;;;;5033215;28;20562;-63
2023/12/31 06:02:38;;;;;;;4.13;2.50;;;;;10.70;97345.00;;;;5031985;28;20049;-63
2023/12/31 06:05:06;;;;;;;2.55;1.95;;;;;10.70;97333.00;;;;5032589;28;20041;-62
2023/12/31 06:07:32;;;;;;;1.80;1.70;;;;;10.70;97337.00;;;;5032974;28;20136;-62
2023/12/31 06:09:59;;;;;;;4.30;2.40;;;;;10.70;97333.00;;;;5032981;28;20052;-62
2023/12/31 06:12:26;;;;;;;3.00;2.03;;;;;10.70;97343.00;;;;5032864;28;20045;-62
2023/12/31 06:14:52;;;;;;;1.95;1.73;;;;;10.60;97332.00;;;;5032539;28;20050;-63
2023/12/31 06:17:19;;;;;;;3.97;1.98;;;;;10.60;97333.00;;;;5031763;28;20049;-62
2023/12/31 06:19:46;;;;;;;2.40;1.60;;;;;10.60;97335.00;;;;5031821;28;20041;-62
2023/12/31 06:22:12;;;;;;;2.30;1.40;;;;;10.60;97325.00;;;;5032931;28;20047;-63
2023/12/31 06:24:39;;;;;;;2.03;1.88;;;;;10.60;97330.00;;;;5031163;28;20413;-63
2023/12/31 06:27:05;;;;;;;3.22;2.75;;;;;10.60;97314.00;;;;5032462;28;20053;-62
2023/12/31 06:29:33;;;;;;;4.50;2.80;;;;;10.60;97307.00;;;;5031393;28;20073;-62
2023/12/31 06:32:00;;;;;;;3.92;2.33;;;;;10.60;97314.00;;;;5032523;28;20045;-62
2023/12/31 06:34:26;;;;;;;2.88;2.13;;;;;10.60;97317.00;;;;5031983;28;20045;-62
2023/12/31 06:36:53;;;;;;;1.83;1.67;;;;;10.70;97318.00;;;;5030956;28;20053;-62
2023/12/31 06:39:20;;;;;;;3.63;2.70;;;;;10.60;97313.00;;;;5032540;28;20045;-62
2023/12/31 06:41:46;;;;;;;1.70;1.60;;;;;10.60;97308.00;;;;5032965;28;20111;-62
2023/12/31 06:44:13;;;;;;;3.15;2.13;;;;;10.60;97314.00;;;;5031880;28;20456;-62
2023/12/31 06:46:39;;;;;;;2.63;2.30;;;;;10.50;97304.00;;;;5031345;28;20414;-63
2023/12/31 06:49:06;;;;;;;2.40;2.10;;;;;10.50;97304.00;;;;5032242;28;20061;-62
2023/12/31 06:51:33;;;;;;;2.60;2.17;;;;;10.50;97296.00;;;;5031896;28;20052;-61
2023/12/31 06:53:59;;;;;;;2.95;2.13;;;;;10.50;97301.00;;;;5032188;28;20045;-66
2023/12/31 06:56:26;;;;;;;2.85;2.38;;;;;10.60;97309.00;;;;5032258;28;20045;-62
2023/12/31 06:58:52;;;;;;;3.92;2.10;;;;;10.60;97305.00;;;;5032181;28;20045;-62
2023/12/31 07:01:19;;;;;;;2.28;2.05;;;;;10.60;97299.00;;;;5031121;28;20051;-63
2023/12/31 07:03:46;;;;;;;17.60;9.70;;;;;10.60;97287.00;;;;5030523;28;20049;-63
2023/12/31 07:06:12;;;;;;;2.78;2.20;;;;;10.60;97292.00;;;;5032306;28;20038;-63
2023/12/31 07:08:39;;;;;;;3.28;2.70;;;;;10.60;97287.00;;;;5030975;28;20081;-62
2023/12/31 07:11:06;;;;;;;4.07;2.58;;;;;10.60;97288.00;;;;5031077;28;20430;-62
2023/12/31 07:13:32;;;;;;;2.58;2.20;;;;;10.60;97287.00;;;;5032560;28;20084;-63
2023/12/31 07:16:00;;;;;;;2.80;2.50;;;;;10.60;97278.00;;;;5020595;28;20124;-61
2023/12/31 07:18:26;;;;;;;3.08;2.35;;;;;10.70;97278.00;;;;5039787;28;20049;-62
2023/12/31 07:20:55;;;;;;;2.63;2.38;;;;;10.70;97278.00;;;;5039239;28;20136;-62
2023/12/31 07:23:22;;;;;;;2.97;2.40;;;;;10.70;97268.00;;;;5039336;28;20101;-66
2023/12/31 07:25:48;;;;;;;2.08;1.73;;;;;10.70;97276.00;;;;5040591;28;20422;-64
2023/12/31 07:28:15;;;;;;;3.05;2.20;;;;;10.70;97270.00;;;;5041891;28;20418;-61
2023/12/31 07:30:44;;;;;;;3.30;2.00;;;;;10.70;97266.00;;;;5040141;28;20056;-62
2023/12/31 07:33:10;;;;;;;4.47;2.05;;;;;10.80;97264.00;;;;5041134;28;20049;-61
2023/12/31 07:35:37;;;;;;;3.47;1.65;;;;;10.80;97268.00;;;;5041373;28;20041;-62
2023/12/31 07:38:06;;;;;;;4.45;2.35;;;;;10.80;97261.00;;;;5039886;28;20073;-62
2023/12/31 07:40:32;;;;;;;3.03;2.00;;;;;10.80;97257.00;;;;5039536;28;20049;-62
2023/12/31 07:42:59;;;;;;;2.05;1.85;;;;;10.80;97244.00;;;;5038540;28;20056;-63
2023/12/31 07:45:25;;;;;;;3.83;1.98;;;;;10.90;97260.00;;;;5039668;28;20037;-62
2023/12/31 07:47:53;;;;;;;2.42;2.22;;;;;10.90;97255.00;;;;5039930;28;20493;-62
2023/12/31 07:50:23;;;;;;;2.58;2.25;;;;;10.90;97259.00;;;;5035941;28;20469;-62
2023/12/31 07:52:50;;;;;;;2.83;1.90;;;;;10.90;97253.00;;;;5036103;28;20045;-62
2023/12/31 07:55:18;;;;;;;2.90;2.00;;;;;10.90;97246.00;;;;5035396;28;20049;-62
2023/12/31 07:57:44;;;;;;;2.55;2.25;;;;;11.00;97237.00;;;;5035942;28;20470;-62
2023/12/31 08:00:12;;;;;;;4.53;2.50;;;;;11.00;97246.00;;;;5036075;28;20073;-62
2023/12/31 08:02:39;;;;;;;2.50;2.30;;;;;11.00;97229.00;;;;5036541;28;20081;-62
2023/12/31 08:05:06;;;;;;;2.75;2.00;;;;;11.00;97222.00;;;;5035788;28;20084;-62
2023/12/31 08:07:33;;;;;;;2.50;2.30;;;;;11.00;97227.00;;;;5035821;28;20124;-62
2023/12/31 08:09:59;;;;;;;2.55;2.17;;;;;11.10;97218.00;;;;5034722;28;20410;-62
2023/12/31 08:12:26;;;;;;;4.05;2.17;;;;;11.10;97228.00;;;;5034276;28;20521;-63
2023/12/31 08:14:53;;;;;;;2.70;1.98;;;;;11.10;97224.00;;;;5034795;28;20083;-62
2023/12/31 08:17:21;;;;;;;2.75;2.10;;;;;11.10;97233.00;;;;5033708;28;20076;-62
2023/12/31 08:19:48;;;;;;;3.05;2.30;;;;;11.10;97229.00;;;;5033966;28;20466;-62
2023/12/31 08:22:14;;;;;;;3.33;2.20;;;;;11.20;97225.00;;;;5035054;28;20041;-63
2023/12/31 08:24:41;;;;;;;3.08;2.55;;;;;11.20;97213.00;;;;5034371;28;20402;-62
2023/12/31 08:27:07;;;;;;;2.22;2.03;;;;;11.30;97201.00;;;;5035032;28;20041;-62
2023/12/31 08:29:34;;;;;;;3.75;2.25;;;;;11.30;97207.00;;;;5034929;28;20076;-62
2023/12/31 08:32:01;;;;;;;2.95;2.35;;;;;11.30;97211.00;;;;5034785;28;20124;-64
2023/12/31 08:34:29;;;;;;;2.35;2.08;;;;;11.30;97219.00;;;;5033105;28;20045;-62
2023/12/31 08:36:56;;;;;;;3.38;2.55;;;;;11.30;97200.00;;;;5034759;28;20037;-62
2023/12/31 08:39:22;;;;;;;2.70;2.15;;;;;11.30;97206.00;;;;5033608;28;20215;-61
2023/12/31 08:41:49;;;;;;;2.67;2.17;;;;;11.40;97209.00;;;;5034940;28;20128;-62
2023/12/31 08:44:16;;;;;;;2.65;2.13;;;;;11.40;97222.00;;;;5034161;28;20449;-63
2023/12/31 08:46:42;;;;;;;3.38;2.22;;;;;11.50;97217.00;;;;5033481;28;20183;-61
2023/12/31 08:49:09;;;;;;;2.40;1.90;;;;;11.50;97214.00;;;;5034711;28;20049;-65
2023/12/31 08:51:36;;;;;;;2.28;2.08;;;;;11.60;97213.00;;;;5034535;28;20049;-62
2023/12/31 08:54:03;;;;;;;5.25;2.72;;;;;11.60;97206.00;;;;5033770;28;20045;-62
2023/12/31 08:56:29;;;;;;;3.80;2.65;;;;;11.60;97216.00;;;;5034629;28;20497;-63
2023/12/31 08:58:56;;;;;;;2.90;2.60;;;;;11.70;97218.00;;;;5034035;28;20445;-62
2023/12/31 09:01:22;;;;;;;4.22;2.70;;;;;11.70;97211.00;;;;5034802;28;20120;-62
2023/12/31 09:03:49;;;;;;;3.17;2.33;;;;;11.70;97225.00;;;;5033740;28;20041;-62
2023/12/31 09:06:18;;;;;;;3.05;2.38;;;;;11.70;97229.00;;;;5034311;28;20049;-63
2023/12/31 09:08:46;;;;;;;3.25;2.40;;;;;11.70;97244.00;;;;5034183;28;20099;-62
2023/12/31 09:11:13;;;;;;;4.93;2.95;;;;;11.70;97219.00;;;;5032827;28;20053;-62
2023/12/31 09:13:39;;;;;;;4.45;2.67;;;;;11.70;97212.00;;;;5033524;28;20509;-62
2023/12/31 09:16:07;;;;;;;5.82;2.60;;;;;11.80;97207.00;;;;5034188;28;20048;-61
2023/12/31 09:18:34;;;;;;;15.48;10.07;;;;;11.80;97214.00;;;;5033936;28;20457;-62
2023/12/31 09:21:00;;;;;;;18.45;9.10;;;;;11.90;97212.00;;;;5033969;28;20148;-62
2023/12/31 09:23:27;;;;;;;14.57;8.98;;;;;11.80;97218.00;;;;5032086;28;20509;-63
2023/12/31 09:25:54;;;;;;;65.32;35.58;;;;;11.80;97216.00;;;;5033919;28;20141;-62
2023/12/31 09:28:21;;;;;;;14.43;8.27;;;;;11.80;97227.00;;;;5034158;28;20045;-62
2023/12/31 09:30:48;;;;;;;23.40;12.45;;;;;11.80;97229.00;;;;5033976;28;20095;-62
2023/12/31 09:33:14;;;;;;;17.73;9.43;;;;;11.90;97226.00;;;;5033608;28;20043;-64
2023/12/31 09:35:41;;;;;;;36.67;19.92;;;;;11.90;97235.00;;;;5015548;28;20042;-63
2023/12/31 09:38:08;;;;;;;12.65;7.15;;;;;11.90;97235.00;;;;5033517;28;20056;-63
2023/12/31 09:40:34;;;;;;;4.72;3.53;;;;;11.90;97238.00;;;;5033483;28;20065;-62
2023/12/31 09:43:03;;;;;;;4.25;3.40;;;;;11.90;97221.00;;;;5033568;28;20076;-62
2023/12/31 09:45:30;;;;;;;2.92;2.72;;;;;11.70;97225.00;;;;5031701;28;20107;-61
2023/12/31 09:47:59;;;;;;;3.35;2.40;;;;;11.70;97210.00;;;;5033489;28;20045;-65
2023/12/31 09:50:27;;;;;;;3.03;2.50;;;;;11.70;97214.00;;;;5032299;28;20108;-63
2023/12/31 09:52:59;;;;;;;3.15;2.50;;;;;11.80;97221.00;;;;5032078;28;20048;-63
2023/12/31 09:55:28;;;;;;;4.53;2.65;;;;;11.70;97212.00;;;;5033031;28;20041;-62
2023/12/31 09:57:56;;;;;;;5.28;3.17;;;;;11.70;97212.00;;;;5031991;28;20042;-62
2023/12/31 10:00:22;;;;;;;3.53;2.83;;;;;11.70;97209.00;;;;5033195;28;20128;-62
2023/12/31 10:02:51;;;;;;;6.88;3.53;;;;;11.70;97207.00;;;;5032027;28;20501;-61
2023/12/31 10:05:20;;;;;;;3.20;2.88;;;;;11.60;97206.00;;;;5032246;28;20056;-63
2023/12/31 10:07:47;;;;;;;4.07;3.13;;;;;11.60;97208.00;;;;5031882;28;20479;-62
2023/12/31 10:10:15;;;;;;;3.17;2.88;;;;;11.70;97204.00;;;;5032907;28;20454;-62
2023/12/31 10:12:42;;;;;;;3.13;2.83;;;;;11.60;97212.00;;;;5032732;28;20064;-63
2023/12/31 10:15:09;;;;;;;3.80;3.05;;;;;11.60;97225.00;;;;5031048;28;20053;-62
2023/12/31 10:17:37;;;;;;;4.00;3.38;;;;;11.50;97219.00;;;;5032696;28;20095;-62
2023/12/31 10:20:05;;;;;;;3.33;2.70;;;;;11.50;97219.00;;;;5032898;28;20041;-63
2023/12/31 10:22:34;;;;;;;4.07;2.67;;;;;11.50;97232.00;;;;5032831;28;20059;-64
2023/12/31 10:25:15;;;;;;;3.47;3.17;;;;;11.50;97225.00;;;;5014593;28;20403;-62
2023/12/31 10:27:48;;;;;;;8.45;5.50;;;;;11.40;97225.00;;;;5032639;28;20041;-61
2023/12/31 10:30:16;;;;;;;4.13;3.38;;;;;11.40;97232.00;;;;5033057;28;20465;-62
2023/12/31 10:32:42;;;;;;;4.82;3.65;;;;;11.40;97232.00;;;;5031231;28;20042;-64
2023/12/31 10:35:09;;;;;;;6.53;3.85;;;;;11.40;97233.00;;;;5030767;28;20045;-63
2023/12/31 10:37:36;;;;;;;7.13;5.10;;;;;11.30;97237.00;;;;5032578;28;20049;-63
2023/12/31 10:40:22;;;;;;;6.38;3.85;;;;;11.30;97234.00;;;;5032522;28;20108;-63
2023/12/31 10:42:55;;;;;;;4.20;2.78;;;;;11.20;97238.00;;;;5032492;28;20037;-62
2023/12/31 10:45:22;;;;;;;7.78;4.05;;;;;11.20;97262.00;;;;5031844;28;20041;-62
2023/12/31 10:47:53;;;;;;;4.03;2.47;;;;;11.20;97249.00;;;;5031017;28;20045;-63
2023/12/31 10:50:25;;;;;;;3.25;2.80;;;;;11.20;97248.00;;;;5032499;28;20544;-63
2023/12/31 10:53:01;;;;;;;4.95;4.47;;;;;11.10;97263.00;;;;5032504;28;20042;-62
2023/12/31 10:55:32;;;;;;;2.17;1.60;;;;;11.00;97264.00;;;;5031694;28;20434;-61
2023/12/31 10:57:59;;;;;;;4.07;1.30;;;;;11.00;97267.00;;;;5032112;28;20052;-61
2023/12/31 11:00:25;;;;;;;2.95;1.10;;;;;11.00;97260.00;;;;5032331;28;20474;-62
2023/12/31 11:02:54;;;;;;;2.40;0.98;;;;;10.90;97260.00;;;;5031227;28;20045;-62
2023/12/31 11:05:22;;;;;;;1.90;1.02;;;;;10.80;97255.00;;;;5031674;28;20049;-61
2023/12/31 11:07:49;;;;;;;2.38;1.00;;;;;10.80;97269.00;;;;5030951;28;20049;-62
2023/12/31 11:10:17;;;;;;;2.85;1.10;;;;;10.70;97267.00;;;;5031946;28;20052;-63
2023/12/31 11:12:48;;;;;;;2.13;1.00;;;;;10.50;97246.00;;;;5032186;28;20042;-64
2023/12/31 11:15:17;;;;;;;4.45;1.33;;;;;10.50;97253.00;;;;5031700;28;20105;-65
2023/12/31 11:18:03;;;;;;;1.83;1.10;;;;;10.50;97259.00;;;;5031003;28;20447;-65
2023/12/31 11:20:42;;;;;;;1.63;1.30;;;;;10.50;97254.00;;;;5032274;28;20120;-65
2023/12/31 11:23:47;;;;;;;1.20;1.10;;;;;10.40;97262.00;;;;5033317;28;20103;-65
2023/12/31 11:26:13;;;;;;;2.05;1.23;;;;;10.40;97258.00;;;;5036571;28;20429;-66
2023/12/31 11:28:48;;;;;;;2.97;1.30;;;;;10.40;97264.00;;;;5044932;28;20131;-65
2023/12/31 11:31:15;;;;;;;1.23;0.90;;;;;10.40;97261.00;;;;5044039;28;20430;-65
2023/12/31 11:33:43;;;;;;;4.45;3.28;;;;;10.30;97266.00;;;;5037626;28;20052;-65
2023/12/31 11:36:11;;;;;;;3.38;1.20;;;;;10.20;97243.00;;;;5035656;28;20081;-65
2023/12/31 11:39:03;;;;;;;3.03;1.60;;;;;10.20;97253.00;;;;5036987;28;20037;-65
2023/12/31 11:41:38;;;;;;;2.67;1.25;;;;;10.20;97245.00;;;;5036677;28;20054;-64
2023/12/31 11:44:05;;;;;;;2.38;1.20;;;;;10.20;97244.00;;;;5034955;28;20056;-64
2023/12/31 11:46:40;;;;;;;1.10;1.00;;;;;10.10;97260.00;;;;5036281;28;20417;-64
2023/12/31 11:49:07;;;;;;;3.22;1.45;;;;;10.10;97259.00;;;;5034651;28;20056;-64
2023/12/31 11:51:51;;;;;;;3.40;1.90;;;;;10.10;97258.00;;;;5036035;28;20076;-67
2023/12/31 11:54:34;;;;;;;1.50;1.20;;;;;10.00;97259.00;;;;5035327;28;20042;-64
2023/12/31 11:57:03;;;;;;;2.40;1.63;;;;;10.00;97257.00;;;;5018184;28;20144;-64
2023/12/31 11:59:34;;;;;;;2.85;1.52;;;;;9.90;97258.00;;;;5035822;28;20045;-65
2023/12/31 12:02:02;;;;;;;4.72;1.50;;;;;10.00;97259.00;;;;5034758;28;20485;-64
2023/12/31 12:04:29;;;;;;;4.60;1.75;;;;;10.00;97252.00;;;;5034828;28;20054;-61
2023/12/31 12:06:56;;;;;;;4.93;2.17;;;;;10.00;97255.00;;;;5035596;28;20100;-62
2023/12/31 12:09:31;;;;;;;2.95;1.40;;;;;10.00;97245.00;;;;5034328;28;20053;-62
2023/12/31 12:12:00;;;;;;;3.38;1.55;;;;;10.00;97246.00;;;;5035572;28;20383;-63
2023/12/31 12:14:27;;;;;;;5.45;2.03;;;;;10.00;97259.00;;;;5034936;28;20048;-63
2023/12/31 12:16:54;;;;;;;5.43;1.10;;;;;9.90;97256.00;;;;5034035;28;20053;-63
2023/12/31 12:19:22;;;;;;;2.55;1.55;;;;;9.90;97261.00;;;;5035204;28;20068;-62
2023/12/31 12:21:50;;;;;;;2.65;1.13;;;;;9.90;97239.00;;;;5035301;28;20552;-63
2023/12/31 12:24:17;;;;;;;3.72;1.10;;;;;9.80;97240.00;;;;5035214;28;20038;-63